sensor_id;sensor_type;location;lat;lon;timestamp;temperature;humidity
5689;DHT22;2869;50.432;8.680;2022-10-15T00:00:20;13.60;99.90
5689;DHT22;2869;50.432;8.680;2022-10-15T00:02:47;13.60;99.90
5689;DHT22;2869;50.432;8.680;2022-10-15T00:05:14;13.60;99.90
5689;DHT22;2869;50.432;8.680;2022-10-15T00:07:40;13.60;99.90
5689;DHT22;2869;50.432;8.680;2022-10-15T00:10:08;13.60;99.90
5689;DHT22;2869;50.432;8.680;2022-10-15T00:12:35;13.60;99.90
5689;DHT22;2869;50.432;8.680;2022-10-15T00:15:03;13.70;99.90
5689;DHT22;2869;50.432;8.680;2022-10-15T00:17:30;13.60;99.90
5689;DHT22;2869;50.432;8.680;2022-10-15T00:19:58;13.70;99.90
5689;DHT22;2869;50.432;8.680;2022-10-15T00:22:24;13.70;99.90
5689;DHT22;2869;50.432;8.680;2022-10-15T00:24:51;13.60;99.90
5689;DHT22;2869;50.432;8.680;2022-10-15T00:27:19;13.70;99.90
5689;DHT22;2869;50.432;8.680;2022-10-15T00:29:45;13.60;99.90
5689;DHT22;2869;50.432;8.680;2022-10-15T00:32:12;13.70;99.90
5689;DHT22;2869;50.432;8.680;2022-10-15T00:34:39;13.70;99.90
5689;DHT22;2869;50.432;8.680;2022-10-15T00:37:06;13.70;99.90
5689;DHT22;2869;50.432;8.680;2022-10-15T00:39:33;13.60;99.90
5689;DHT22;2869;50.432;8.680;2022-10-15T00:42:00;13.70;99.90
5689;DHT22;2869;50.432;8.680;2022-10-15T00:44:53;13.70;99.90
5689;DHT22;2869;50.432;8.680;2022-10-15T00:47:26;13.70;99.90
5689;DHT22;2869;50.432;8.680;2022-10-15T00:50:03;13.70;99.90
5689;DHT22;2869;50.432;8.680;2022-10-15T00:52:36;13.70;99.90
5689;DHT22;2869;50.432;8.680;2022-10-15T00:55:07;13.70;99.90
5689;DHT22;2869;50.432;8.680;2022-10-15T00:57:35;13.70;99.90
5689;DHT22;2869;50.432;8.680;2022-10-15T01:00:07;13.70;99.90
5689;DHT22;2869;50.432;8.680;2022-10-15T01:02:34;13.70;99.90
5689;DHT22;2869;50.432;8.680;2022-10-15T01:05:02;13.60;99.90
5689;DHT22;2869;50.432;8.680;2022-10-15T01:07:29;13.70;99.90
5689;DHT22;2869;50.432;8.680;2022-10-15T01:09:56;13.70;99.90
5689;DHT22;2869;50.432;8.680;2022-10-15T01:12:31;13.70;99.90
5689;DHT22;2869;50.432;8.680;2022-10-15T01:15:11;13.60;99.90
5689;DHT22;2869;50.432;8.680;2022-10-15T01:17:45;13.70;99.90
5689;DHT22;2869;50.432;8.680;2022-10-15T01:20:39;13.60;99.90
5689;DHT22;2869;50.432;8.680;2022-10-15T01:23:37;13.60;99.90
5689;DHT22;2869;50.432;8.680;2022-10-15T01:26:24;13.60;99.90
5689;DHT22;2869;50.432;8.680;2022-10-15T01:29:04;13.80;99.90
5689;DHT22;2869;50.432;8.680;2022-10-15T01:31:39;13.50;99.90
5689;DHT22;2869;50.432;8.680;2022-10-15T01:34:13;13.50;99.90
5689;DHT22;2869;50.432;8.680;2022-10-15T01:36:48;13.50;99.90
5689;DHT22;2869;50.432;8.680;2022-10-15T01:39:21;13.50;99.90
5689;DHT22;2869;50.432;8.680;2022-10-15T01:41:51;13.50;99.90
5689;DHT22;2869;50.432;8.680;2022-10-15T01:44:22;13.50;99.90
5689;DHT22;2869;50.432;8.680;2022-10-15T01:46:54;13.50;99.90
5689;DHT22;2869;50.432;8.680;2022-10-15T01:49:25;13.50;99.90
5689;DHT22;2869;50.432;8.680;2022-10-15T01:51:55;13.50;99.90
5689;DHT22;2869;50.432;8.680;2022-10-15T01:54:25;13.50;99.90
5689;DHT22;2869;50.432;8.680;2022-10-15T01:56:53;13.50;99.90
5689;DHT22;2869;50.432;8.680;2022-10-15T01:59:23;13.50;99.90
5689;DHT22;2869;50.432;8.680;2022-10-15T02:01:53;13.50;99.90
5689;DHT22;2869;50.432;8.680;2022-10-15T02:04:22;13.50;99.90
5689;DHT22;2869;50.432;8.680;2022-10-15T02:06:52;13.50;99.90
5689;DHT22;2869;50.432;8.680;2022-10-15T02:09:26;13.50;99.90
5689;DHT22;2869;50.432;8.680;2022-10-15T02:12:02;13.50;99.90
5689;DHT22;2869;50.432;8.680;2022-10-15T02:14:35;13.50;99.90
5689;DHT22;2869;50.432;8.680;2022-10-15T02:17:08;13.40;99.90
5689;DHT22;2869;50.432;8.680;2022-10-15T02:19:40;13.40;99.90
5689;DHT22;2869;50.432;8.680;2022-10-15T02:22:12;13.40;99.90
5689;DHT22;2869;50.432;8.680;2022-10-15T02:24:43;13.40;99.90
5689;DHT22;2869;50.432;8.680;2022-10-15T02:27:15;13.30;99.90
5689;DHT22;2869;50.432;8.680;2022-10-15T02:29:43;13.30;99.90
5689;DHT22;2869;50.432;8.680;2022-10-15T02:32:13;13.30;99.90
5689;DHT22;2869;50.432;8.680;2022-10-15T02:34:41;13.30;99.90
5689;DHT22;2869;50.432;8.680;2022-10-15T02:37:10;13.30;99.90
5689;DHT22;2869;50.432;8.680;2022-10-15T02:39:37;13.30;99.90
5689;DHT22;2869;50.432;8.680;2022-10-15T02:42:05;13.30;99.90
5689;DHT22;2869;50.432;8.680;2022-10-15T02:44:31;13.40;99.90
5689;DHT22;2869;50.432;8.680;2022-10-15T02:46:58;13.30;99.90
5689;DHT22;2869;50.432;8.680;2022-10-15T02:49:26;13.40;99.90
5689;DHT22;2869;50.432;8.680;2022-10-15T02:51:53;13.40;99.90
5689;DHT22;2869;50.432;8.680;2022-10-15T02:54:20;13.40;99.90
5689;DHT22;2869;50.432;8.680;2022-10-15T02:56:47;13.40;99.90
5689;DHT22;2869;50.432;8.680;2022-10-15T02:59:14;13.40;99.90
5689;DHT22;2869;50.432;8.680;2022-10-15T03:01:41;13.40;99.90
5689;DHT22;2869;50.432;8.680;2022-10-15T03:04:07;13.40;99.90
5689;DHT22;2869;50.432;8.680;2022-10-15T03:06:35;13.40;99.90
5689;DHT22;2869;50.432;8.680;2022-10-15T03:09:03;13.40;99.90
5689;DHT22;2869;50.432;8.680;2022-10-15T03:11:30;13.40;99.90
5689;DHT22;2869;50.432;8.680;2022-10-15T03:13:56;13.40;99.90
5689;DHT22;2869;50.432;8.680;2022-10-15T03:16:23;13.40;99.90
5689;DHT22;2869;50.432;8.680;2022-10-15T03:18:50;13.40;99.90
5689;DHT22;2869;50.432;8.680;2022-10-15T03:21:16;13.40;99.90
5689;DHT22;2869;50.432;8.680;2022-10-15T03:23:44;13.40;99.90
5689;DHT22;2869;50.432;8.680;2022-10-15T03:26:11;13.40;99.90
5689;DHT22;2869;50.432;8.680;2022-10-15T03:28:38;13.40;99.90
5689;DHT22;2869;50.432;8.680;2022-10-15T03:31:04;13.40;99.90
5689;DHT22;2869;50.432;8.680;2022-10-15T03:33:31;13.40;99.90
5689;DHT22;2869;50.432;8.680;2022-10-15T03:35:58;13.50;99.90
5689;DHT22;2869;50.432;8.680;2022-10-15T03:38:25;13.50;99.90
5689;DHT22;2869;50.432;8.680;2022-10-15T03:40:53;13.50;99.90
5689;DHT22;2869;50.432;8.680;2022-10-15T03:43:22;13.50;99.90
5689;DHT22;2869;50.432;8.680;2022-10-15T03:45:49;13.50;99.90
5689;DHT22;2869;50.432;8.680;2022-10-15T03:48:16;13.50;99.90
5689;DHT22;2869;50.432;8.680;2022-10-15T03:50:44;13.50;99.90
5689;DHT22;2869;50.432;8.680;2022-10-15T03:53:10;13.50;99.90
5689;DHT22;2869;50.432;8.680;2022-10-15T03:55:37;13.50;99.90
5689;DHT22;2869;50.432;8.680;2022-10-15T03:58:05;13.50;99.90
5689;DHT22;2869;50.432;8.680;2022-10-15T04:00:32;13.50;99.90
5689;DHT22;2869;50.432;8.680;2022-10-15T04:02:59;13.50;99.90
5689;DHT22;2869;50.432;8.680;2022-10-15T04:05:25;13.50;99.90
5689;DHT22;2869;50.432;8.680;2022-10-15T04:07:52;13.50;99.90
5689;DHT22;2869;50.432;8.680;2022-10-15T04:10:19;13.50;99.90
5689;DHT22;2869;50.432;8.680;2022-10-15T04:12:46;13.50;99.90
5689;DHT22;2869;50.432;8.680;2022-10-15T04:15:14;13.50;99.90
5689;DHT22;2869;50.432;8.680;2022-10-15T04:17:40;13.60;99.90
5689;DHT22;2869;50.432;8.680;2022-10-15T04:20:08;13.50;99.90
5689;DHT22;2869;50.432;8.680;2022-10-15T04:22:36;13.50;99.90
5689;DHT22;2869;50.432;8.680;2022-10-15T04:25:03;13.50;99.90
5689;DHT22;2869;50.432;8.680;2022-10-15T04:27:30;13.50;99.90
5689;DHT22;2869;50.432;8.680;2022-10-15T04:29:57;13.50;99.90
5689;DHT22;2869;50.432;8.680;2022-10-15T04:32:25;13.50;99.90
5689;DHT22;2869;50.432;8.680;2022-10-15T04:34:51;13.50;99.90
5689;DHT22;2869;50.432;8.680;2022-10-15T04:37:18;13.50;99.90
5689;DHT22;2869;50.432;8.680;2022-10-15T04:39:45;13.50;99.90
5689;DHT22;2869;50.432;8.680;2022-10-15T04:42:11;13.50;99.90
5689;DHT22;2869;50.432;8.680;2022-10-15T04:44:38;13.50;99.90
5689;DHT22;2869;50.432;8.680;2022-10-15T04:47:05;13.50;99.90
5689;DHT22;2869;50.432;8.680;2022-10-15T04:49:33;13.50;99.90
5689;DHT22;2869;50.432;8.680;2022-10-15T04:51:59;13.50;99.90
5689;DHT22;2869;50.432;8.680;2022-10-15T04:54:26;13.50;99.90
5689;DHT22;2869;50.432;8.680;2022-10-15T04:56:52;13.50;99.90
5689;DHT22;2869;50.432;8.680;2022-10-15T04:59:19;13.50;99.90
5689;DHT22;2869;50.432;8.680;2022-10-15T05:01:46;13.50;99.90
5689;DHT22;2869;50.432;8.680;2022-10-15T05:04:13;13.50;99.90
5689;DHT22;2869;50.432;8.680;2022-10-15T05:06:41;13.50;99.90
5689;DHT22;2869;50.432;8.680;2022-10-15T05:09:07;13.50;99.90
5689;DHT22;2869;50.432;8.680;2022-10-15T05:11:35;13.50;99.90
5689;DHT22;2869;50.432;8.680;2022-10-15T05:14:02;13.50;99.90
5689;DHT22;2869;50.432;8.680;2022-10-15T05:16:30;13.50;99.90
5689;DHT22;2869;50.432;8.680;2022-10-15T05:18:59;13.50;99.90
5689;DHT22;2869;50.432;8.680;2022-10-15T05:21:27;13.50;99.90
5689;DHT22;2869;50.432;8.680;2022-10-15T05:23:55;13.50;99.90
5689;DHT22;2869;50.432;8.680;2022-10-15T05:26:23;13.50;99.90
5689;DHT22;2869;50.432;8.680;2022-10-15T05:28:50;13.50;99.90
5689;DHT22;2869;50.432;8.680;2022-10-15T05:31:20;13.50;99.90
5689;DHT22;2869;50.432;8.680;2022-10-15T05:33:48;13.40;99.90
5689;DHT22;2869;50.432;8.680;2022-10-15T05:36:16;13.40;99.90
5689;DHT22;2869;50.432;8.680;2022-10-15T05:38:44;13.40;99.90
5689;DHT22;2869;50.432;8.680;2022-10-15T05:41:12;13.40;99.90
5689;DHT22;2869;50.432;8.680;2022-10-15T05:43:39;13.40;99.90
5689;DHT22;2869;50.432;8.680;2022-10-15T05:46:06;13.40;99.90
5689;DHT22;2869;50.432;8.680;2022-10-15T05:48:32;13.40;99.90
5689;DHT22;2869;50.432;8.680;2022-10-15T05:51:00;13.50;99.90
5689;DHT22;2869;50.432;8.680;2022-10-15T05:53:27;13.50;99.90
5689;DHT22;2869;50.432;8.680;2022-10-15T05:55:54;13.50;99.90
5689;DHT22;2869;50.432;8.680;2022-10-15T05:58:22;13.50;99.90
5689;DHT22;2869;50.432;8.680;2022-10-15T06:00:52;13.50;99.90
5689;DHT22;2869;50.432;8.680;2022-10-15T06:03:19;13.50;99.90
5689;DHT22;2869;50.432;8.680;2022-10-15T06:05:46;13.50;99.90
5689;DHT22;2869;50.432;8.680;2022-10-15T06:08:13;13.40;99.90
5689;DHT22;2869;50.432;8.680;2022-10-15T06:10:39;13.50;99.90
5689;DHT22;2869;50.432;8.680;2022-10-15T06:13:06;13.60;99.90
5689;DHT22;2869;50.432;8.680;2022-10-15T06:15:38;13.60;99.90
5689;DHT22;2869;50.432;8.680;2022-10-15T06:18:05;13.80;99.90
5689;DHT22;2869;50.432;8.680;2022-10-15T06:20:32;13.90;99.90
5689;DHT22;2869;50.432;8.680;2022-10-15T06:22:59;13.90;99.90
5689;DHT22;2869;50.432;8.680;2022-10-15T06:25:26;14.00;99.90
5689;DHT22;2869;50.432;8.680;2022-10-15T06:27:53;14.00;99.90
5689;DHT22;2869;50.432;8.680;2022-10-15T06:30:20;14.10;99.90
5689;DHT22;2869;50.432;8.680;2022-10-15T06:32:49;14.20;99.90
5689;DHT22;2869;50.432;8.680;2022-10-15T06:35:17;14.20;99.90
5689;DHT22;2869;50.432;8.680;2022-10-15T06:37:44;14.20;99.90
5689;DHT22;2869;50.432;8.680;2022-10-15T06:40:12;14.10;99.90
5689;DHT22;2869;50.432;8.680;2022-10-15T06:42:39;14.10;99.90
5689;DHT22;2869;50.432;8.680;2022-10-15T06:45:07;14.00;99.90
5689;DHT22;2869;50.432;8.680;2022-10-15T06:47:34;14.00;99.90
5689;DHT22;2869;50.432;8.680;2022-10-15T06:50:02;14.00;99.90
5689;DHT22;2869;50.432;8.680;2022-10-15T06:52:30;14.00;99.90
5689;DHT22;2869;50.432;8.680;2022-10-15T06:54:57;14.00;99.90
5689;DHT22;2869;50.432;8.680;2022-10-15T06:57:24;13.90;99.90
5689;DHT22;2869;50.432;8.680;2022-10-15T06:59:50;13.90;99.90
5689;DHT22;2869;50.432;8.680;2022-10-15T07:02:17;13.90;99.90
5689;DHT22;2869;50.432;8.680;2022-10-15T07:04:44;13.90;99.90
5689;DHT22;2869;50.432;8.680;2022-10-15T07:07:13;13.90;99.90
5689;DHT22;2869;50.432;8.680;2022-10-15T07:09:39;14.00;99.90
5689;DHT22;2869;50.432;8.680;2022-10-15T07:12:06;14.00;99.90
5689;DHT22;2869;50.432;8.680;2022-10-15T07:14:33;14.10;99.90
5689;DHT22;2869;50.432;8.680;2022-10-15T07:16:59;14.00;99.90
5689;DHT22;2869;50.432;8.680;2022-10-15T07:19:26;14.10;99.90
5689;DHT22;2869;50.432;8.680;2022-10-15T07:21:53;14.10;99.90
5689;DHT22;2869;50.432;8.680;2022-10-15T07:24:21;14.10;99.90
5689;DHT22;2869;50.432;8.680;2022-10-15T07:26:48;14.10;99.90
5689;DHT22;2869;50.432;8.680;2022-10-15T07:29:15;14.10;99.90
5689;DHT22;2869;50.432;8.680;2022-10-15T07:31:42;14.10;99.90
5689;DHT22;2869;50.432;8.680;2022-10-15T07:34:08;14.10;99.90
5689;DHT22;2869;50.432;8.680;2022-10-15T07:36:35;14.10;99.90
5689;DHT22;2869;50.432;8.680;2022-10-15T07:39:02;14.10;99.90
5689;DHT22;2869;50.432;8.680;2022-10-15T07:41:30;14.10;99.90
5689;DHT22;2869;50.432;8.680;2022-10-15T07:43:57;14.10;99.90
5689;DHT22;2869;50.432;8.680;2022-10-15T07:46:24;14.10;99.90
5689;DHT22;2869;50.432;8.680;2022-10-15T07:48:51;14.10;99.90
5689;DHT22;2869;50.432;8.680;2022-10-15T07:51:18;14.10;99.90
5689;DHT22;2869;50.432;8.680;2022-10-15T07:53:44;14.10;99.90
5689;DHT22;2869;50.432;8.680;2022-10-15T07:56:13;14.10;99.90
5689;DHT22;2869;50.432;8.680;2022-10-15T07:58:41;14.20;99.90
5689;DHT22;2869;50.432;8.680;2022-10-15T08:01:15;14.30;99.90
5689;DHT22;2869;50.432;8.680;2022-10-15T08:03:43;14.30;99.90
5689;DHT22;2869;50.432;8.680;2022-10-15T08:06:09;14.40;99.90
5689;DHT22;2869;50.432;8.680;2022-10-15T08:08:36;14.40;99.90
5689;DHT22;2869;50.432;8.680;2022-10-15T08:11:04;14.50;99.90
5689;DHT22;2869;50.432;8.680;2022-10-15T08:13:31;14.50;99.90
5689;DHT22;2869;50.432;8.680;2022-10-15T08:15:59;14.50;99.90
5689;DHT22;2869;50.432;8.680;2022-10-15T08:18:25;14.60;99.90
5689;DHT22;2869;50.432;8.680;2022-10-15T08:20:52;14.60;99.90
5689;DHT22;2869;50.432;8.680;2022-10-15T08:23:19;14.60;99.90
5689;DHT22;2869;50.432;8.680;2022-10-15T08:25:45;14.70;99.90
5689;DHT22;2869;50.432;8.680;2022-10-15T08:28:12;14.70;99.90
5689;DHT22;2869;50.432;8.680;2022-10-15T08:30:39;14.80;99.90
5689;DHT22;2869;50.432;8.680;2022-10-15T08:33:07;14.90;99.90
5689;DHT22;2869;50.432;8.680;2022-10-15T08:35:33;14.90;99.90
5689;DHT22;2869;50.432;8.680;2022-10-15T08:38:03;15.00;99.90
5689;DHT22;2869;50.432;8.680;2022-10-15T08:40:30;15.00;99.90
5689;DHT22;2869;50.432;8.680;2022-10-15T08:42:57;15.00;99.90
5689;DHT22;2869;50.432;8.680;2022-10-15T08:45:28;15.00;99.90
5689;DHT22;2869;50.432;8.680;2022-10-15T08:47:58;15.00;99.90
5689;DHT22;2869;50.432;8.680;2022-10-15T08:50:37;15.10;99.90
5689;DHT22;2869;50.432;8.680;2022-10-15T08:53:08;15.10;99.90
5689;DHT22;2869;50.432;8.680;2022-10-15T08:55:39;15.10;99.90
5689;DHT22;2869;50.432;8.680;2022-10-15T08:58:13;15.10;99.90
5689;DHT22;2869;50.432;8.680;2022-10-15T09:00:43;15.10;99.90
5689;DHT22;2869;50.432;8.680;2022-10-15T09:03:31;15.20;99.90
5689;DHT22;2869;50.432;8.680;2022-10-15T09:06:07;15.30;99.90
5689;DHT22;2869;50.432;8.680;2022-10-15T09:08:40;15.50;99.90
5689;DHT22;2869;50.432;8.680;2022-10-15T09:11:14;15.50;99.90
5689;DHT22;2869;50.432;8.680;2022-10-15T09:13:43;15.60;99.90
5689;DHT22;2869;50.432;8.680;2022-10-15T09:16:14;15.60;99.90
5689;DHT22;2869;50.432;8.680;2022-10-15T09:18:44;15.60;99.90
5689;DHT22;2869;50.432;8.680;2022-10-15T09:21:13;15.60;99.90
5689;DHT22;2869;50.432;8.680;2022-10-15T09:23:40;15.60;99.90
5689;DHT22;2869;50.432;8.680;2022-10-15T09:26:19;15.50;99.90
5689;DHT22;2869;50.432;8.680;2022-10-15T09:28:55;15.40;99.90
5689;DHT22;2869;50.432;8.680;2022-10-15T09:31:28;15.40;99.90
5689;DHT22;2869;50.432;8.680;2022-10-15T09:34:02;15.40;99.90
5689;DHT22;2869;50.432;8.680;2022-10-15T09:36:35;15.30;99.90
5689;DHT22;2869;50.432;8.680;2022-10-15T09:39:19;15.30;99.90
5689;DHT22;2869;50.432;8.680;2022-10-15T09:42:00;15.30;99.90
5689;DHT22;2869;50.432;8.680;2022-10-15T09:44:35;15.40;99.90
5689;DHT22;2869;50.432;8.680;2022-10-15T09:47:14;15.40;99.90
5689;DHT22;2869;50.432;8.680;2022-10-15T09:49:42;15.40;99.90
5689;DHT22;2869;50.432;8.680;2022-10-15T09:52:14;15.40;99.90
5689;DHT22;2869;50.432;8.680;2022-10-15T09:54:47;15.40;99.90
5689;DHT22;2869;50.432;8.680;2022-10-15T09:57:18;15.50;99.90
5689;DHT22;2869;50.432;8.680;2022-10-15T09:59:54;15.70;99.90
5689;DHT22;2869;50.432;8.680;2022-10-15T10:02:23;15.90;99.90
5689;DHT22;2869;50.432;8.680;2022-10-15T10:04:50;16.10;99.90
5689;DHT22;2869;50.432;8.680;2022-10-15T10:07:29;16.30;99.90
5689;DHT22;2869;50.432;8.680;2022-10-15T10:09:59;16.40;99.90
5689;DHT22;2869;50.432;8.680;2022-10-15T10:12:28;16.50;99.90
5689;DHT22;2869;50.432;8.680;2022-10-15T10:14:57;16.50;99.90
5689;DHT22;2869;50.432;8.680;2022-10-15T10:17:26;16.60;99.90
5689;DHT22;2869;50.432;8.680;2022-10-15T10:20:12;16.60;99.90
5689;DHT22;2869;50.432;8.680;2022-10-15T10:22:46;16.60;99.90
5689;DHT22;2869;50.432;8.680;2022-10-15T10:25:27;16.50;99.90
5689;DHT22;2869;50.432;8.680;2022-10-15T10:27:55;16.50;99.90
5689;DHT22;2869;50.432;8.680;2022-10-15T10:30:22;16.50;99.90
5689;DHT22;2869;50.432;8.680;2022-10-15T10:32:54;16.50;99.90
5689;DHT22;2869;50.432;8.680;2022-10-15T10:35:23;16.40;99.90
5689;DHT22;2869;50.432;8.680;2022-10-15T10:37:52;16.50;99.90
5689;DHT22;2869;50.432;8.680;2022-10-15T10:40:22;16.80;99.90
5689;DHT22;2869;50.432;8.680;2022-10-15T10:43:09;17.00;99.90
5689;DHT22;2869;50.432;8.680;2022-10-15T10:45:36;17.30;99.90
5689;DHT22;2869;50.432;8.680;2022-10-15T10:48:17;17.50;99.90
5689;DHT22;2869;50.432;8.680;2022-10-15T10:50:44;17.60;99.90
5689;DHT22;2869;50.432;8.680;2022-10-15T10:53:23;17.60;99.90
5689;DHT22;2869;50.432;8.680;2022-10-15T10:55:51;17.70;99.90
5689;DHT22;2869;50.432;8.680;2022-10-15T10:58:21;17.80;99.90
5689;DHT22;2869;50.432;8.680;2022-10-15T11:00:50;17.90;99.90
5689;DHT22;2869;50.432;8.680;2022-10-15T11:03:29;17.90;99.90
5689;DHT22;2869;50.432;8.680;2022-10-15T11:06:05;17.80;99.90
5689;DHT22;2869;50.432;8.680;2022-10-15T11:08:39;17.80;99.90
5689;DHT22;2869;50.432;8.680;2022-10-15T11:11:17;17.60;99.90
5689;DHT22;2869;50.432;8.680;2022-10-15T11:13:56;17.50;99.90
5689;DHT22;2869;50.432;8.680;2022-10-15T11:16:31;17.40;99.90
5689;DHT22;2869;50.432;8.680;2022-10-15T11:19:09;17.30;99.90
5689;DHT22;2869;50.432;8.680;2022-10-15T11:21:46;17.20;99.90
5689;DHT22;2869;50.432;8.680;2022-10-15T11:24:22;17.20;99.90
5689;DHT22;2869;50.432;8.680;2022-10-15T11:26:58;17.20;99.90
5689;DHT22;2869;50.432;8.680;2022-10-15T11:29:35;17.20;99.90
5689;DHT22;2869;50.432;8.680;2022-10-15T11:32:13;17.20;99.90
5689;DHT22;2869;50.432;8.680;2022-10-15T11:34:51;17.20;99.90
5689;DHT22;2869;50.432;8.680;2022-10-15T11:37:33;17.20;99.90
5689;DHT22;2869;50.432;8.680;2022-10-15T11:40:13;17.30;99.90
5689;DHT22;2869;50.432;8.680;2022-10-15T11:42:50;17.50;99.90
5689;DHT22;2869;50.432;8.680;2022-10-15T11:45:52;17.70;99.90
5689;DHT22;2869;50.432;8.680;2022-10-15T11:48:28;18.20;99.90
5689;DHT22;2869;50.432;8.680;2022-10-15T11:51:01;18.50;99.90
5689;DHT22;2869;50.432;8.680;2022-10-15T11:56:29;18.90;99.90
5689;DHT22;2869;50.432;8.680;2022-10-15T11:59:03;18.80;99.90
5689;DHT22;2869;50.432;8.680;2022-10-15T12:01:42;18.60;99.90
5689;DHT22;2869;50.432;8.680;2022-10-15T12:04:14;18.50;99.90
5689;DHT22;2869;50.432;8.680;2022-10-15T12:06:44;18.70;99.90
5689;DHT22;2869;50.432;8.680;2022-10-15T12:09:15;19.00;99.90
5689;DHT22;2869;50.432;8.680;2022-10-15T12:11:49;19.30;99.90
5689;DHT22;2869;50.432;8.680;2022-10-15T12:14:22;19.30;99.90
5689;DHT22;2869;50.432;8.680;2022-10-15T12:16:57;19.30;99.90
5689;DHT22;2869;50.432;8.680;2022-10-15T12:19:31;19.20;99.90
5689;DHT22;2869;50.432;8.680;2022-10-15T12:22:04;19.10;99.90
5689;DHT22;2869;50.432;8.680;2022-10-15T12:24:50;19.00;99.90
5689;DHT22;2869;50.432;8.680;2022-10-15T12:27:23;18.80;99.90
5689;DHT22;2869;50.432;8.680;2022-10-15T12:29:52;18.70;99.90
5689;DHT22;2869;50.432;8.680;2022-10-15T12:32:38;18.50;99.90
5689;DHT22;2869;50.432;8.680;2022-10-15T12:35:17;18.40;99.90
5689;DHT22;2869;50.432;8.680;2022-10-15T12:37:46;18.30;99.90
5689;DHT22;2869;50.432;8.680;2022-10-15T12:40:25;18.20;99.90
5689;DHT22;2869;50.432;8.680;2022-10-15T12:42:55;18.10;99.90
5689;DHT22;2869;50.432;8.680;2022-10-15T12:45:25;18.00;99.90
5689;DHT22;2869;50.432;8.680;2022-10-15T12:48:16;17.90;99.90
5689;DHT22;2869;50.432;8.680;2022-10-15T12:50:43;17.90;99.90
5689;DHT22;2869;50.432;8.680;2022-10-15T12:53:28;18.00;99.90
5689;DHT22;2869;50.432;8.680;2022-10-15T12:56:11;17.90;99.90
5689;DHT22;2869;50.432;8.680;2022-10-15T12:58:44;17.90;99.90
5689;DHT22;2869;50.432;8.680;2022-10-15T13:01:27;17.90;99.90
5689;DHT22;2869;50.432;8.680;2022-10-15T13:03:55;17.80;99.90
5689;DHT22;2869;50.432;8.680;2022-10-15T13:06:26;17.80;99.90
5689;DHT22;2869;50.432;8.680;2022-10-15T13:09:05;17.70;99.90
5689;DHT22;2869;50.432;8.680;2022-10-15T13:11:45;17.60;99.90
5689;DHT22;2869;50.432;8.680;2022-10-15T13:14:18;17.50;99.90
5689;DHT22;2869;50.432;8.680;2022-10-15T13:16:49;17.40;99.90
5689;DHT22;2869;50.432;8.680;2022-10-15T13:19:18;17.50;99.90
5689;DHT22;2869;50.432;8.680;2022-10-15T13:21:49;17.50;99.90
5689;DHT22;2869;50.432;8.680;2022-10-15T13:24:21;17.50;99.90
5689;DHT22;2869;50.432;8.680;2022-10-15T13:26:48;17.50;99.90
5689;DHT22;2869;50.432;8.680;2022-10-15T13:29:18;17.40;99.90
5689;DHT22;2869;50.432;8.680;2022-10-15T13:31:45;17.40;99.90
5689;DHT22;2869;50.432;8.680;2022-10-15T13:34:18;17.30;99.90
5689;DHT22;2869;50.432;8.680;2022-10-15T13:36:46;17.30;99.90
5689;DHT22;2869;50.432;8.680;2022-10-15T13:39:23;17.30;99.90
5689;DHT22;2869;50.432;8.680;2022-10-15T13:41:50;17.30;99.90
5689;DHT22;2869;50.432;8.680;2022-10-15T13:44:23;17.30;99.90
5689;DHT22;2869;50.432;8.680;2022-10-15T13:46:50;17.20;99.90
5689;DHT22;2869;50.432;8.680;2022-10-15T13:49:17;17.20;99.90
5689;DHT22;2869;50.432;8.680;2022-10-15T13:51:46;17.10;99.90
5689;DHT22;2869;50.432;8.680;2022-10-15T13:54:16;17.10;99.90
5689;DHT22;2869;50.432;8.680;2022-10-15T13:56:49;17.10;99.90
5689;DHT22;2869;50.432;8.680;2022-10-15T13:59:18;17.20;99.90
5689;DHT22;2869;50.432;8.680;2022-10-15T14:01:47;17.10;99.90
5689;DHT22;2869;50.432;8.680;2022-10-15T14:04:16;17.20;99.90
5689;DHT22;2869;50.432;8.680;2022-10-15T14:06:51;17.30;99.90
5689;DHT22;2869;50.432;8.680;2022-10-15T14:09:22;17.30;99.90
5689;DHT22;2869;50.432;8.680;2022-10-15T14:11:51;17.30;99.90
5689;DHT22;2869;50.432;8.680;2022-10-15T14:14:28;17.30;99.90
5689;DHT22;2869;50.432;8.680;2022-10-15T14:16:57;17.40;99.90
5689;DHT22;2869;50.432;8.680;2022-10-15T14:19:25;17.40;99.90
5689;DHT22;2869;50.432;8.680;2022-10-15T14:21:55;17.40;99.90
5689;DHT22;2869;50.432;8.680;2022-10-15T14:24:26;17.30;99.90
5689;DHT22;2869;50.432;8.680;2022-10-15T14:26:53;17.40;99.90
5689;DHT22;2869;50.432;8.680;2022-10-15T14:29:25;17.40;99.90
5689;DHT22;2869;50.432;8.680;2022-10-15T14:31:52;17.40;99.90
5689;DHT22;2869;50.432;8.680;2022-10-15T14:34:34;17.40;99.90
5689;DHT22;2869;50.432;8.680;2022-10-15T14:37:30;17.40;99.90
5689;DHT22;2869;50.432;8.680;2022-10-15T14:40:07;17.50;99.90
5689;DHT22;2869;50.432;8.680;2022-10-15T14:42:38;17.50;99.90
5689;DHT22;2869;50.432;8.680;2022-10-15T14:45:12;17.40;99.90
5689;DHT22;2869;50.432;8.680;2022-10-15T14:47:45;17.40;99.90
5689;DHT22;2869;50.432;8.680;2022-10-15T14:50:14;17.40;99.90
5689;DHT22;2869;50.432;8.680;2022-10-15T14:52:43;17.40;99.90
5689;DHT22;2869;50.432;8.680;2022-10-15T14:55:15;17.50;99.90
5689;DHT22;2869;50.432;8.680;2022-10-15T14:57:44;17.50;99.90
5689;DHT22;2869;50.432;8.680;2022-10-15T15:00:15;17.40;99.90
5689;DHT22;2869;50.432;8.680;2022-10-15T15:02:42;17.40;99.90
5689;DHT22;2869;50.432;8.680;2022-10-15T15:05:18;17.40;99.90
5689;DHT22;2869;50.432;8.680;2022-10-15T15:07:46;17.30;99.90
5689;DHT22;2869;50.432;8.680;2022-10-15T15:10:13;17.30;99.90
5689;DHT22;2869;50.432;8.680;2022-10-15T15:12:47;17.30;99.90
5689;DHT22;2869;50.432;8.680;2022-10-15T15:15:17;17.30;99.90
5689;DHT22;2869;50.432;8.680;2022-10-15T15:17:44;17.20;99.90
5689;DHT22;2869;50.432;8.680;2022-10-15T15:20:11;17.20;99.90
5689;DHT22;2869;50.432;8.680;2022-10-15T15:22:40;17.20;99.90
5689;DHT22;2869;50.432;8.680;2022-10-15T15:25:13;17.20;99.90
5689;DHT22;2869;50.432;8.680;2022-10-15T15:27:40;17.20;99.90
5689;DHT22;2869;50.432;8.680;2022-10-15T15:30:13;17.20;99.90
5689;DHT22;2869;50.432;8.680;2022-10-15T15:32:40;17.20;99.90
5689;DHT22;2869;50.432;8.680;2022-10-15T15:35:17;17.20;99.90
5689;DHT22;2869;50.432;8.680;2022-10-15T15:37:45;17.20;99.90
5689;DHT22;2869;50.432;8.680;2022-10-15T15:40:12;17.20;99.90
5689;DHT22;2869;50.432;8.680;2022-10-15T15:42:40;17.10;99.90
5689;DHT22;2869;50.432;8.680;2022-10-15T15:45:16;17.00;99.90
5689;DHT22;2869;50.432;8.680;2022-10-15T15:47:43;16.90;99.90
5689;DHT22;2869;50.432;8.680;2022-10-15T15:50:09;16.90;99.90
5689;DHT22;2869;50.432;8.680;2022-10-15T15:52:36;16.80;99.90
5689;DHT22;2869;50.432;8.680;2022-10-15T15:55:05;16.70;99.90
5689;DHT22;2869;50.432;8.680;2022-10-15T15:57:32;16.70;99.90
5689;DHT22;2869;50.432;8.680;2022-10-15T15:59:59;16.70;99.90
5689;DHT22;2869;50.432;8.680;2022-10-15T16:02:26;16.60;99.90
5689;DHT22;2869;50.432;8.680;2022-10-15T16:04:52;16.60;99.90
5689;DHT22;2869;50.432;8.680;2022-10-15T16:07:19;16.60;99.90
5689;DHT22;2869;50.432;8.680;2022-10-15T16:09:46;16.60;99.90
5689;DHT22;2869;50.432;8.680;2022-10-15T16:12:14;16.60;99.90
5689;DHT22;2869;50.432;8.680;2022-10-15T16:14:40;16.60;99.90
5689;DHT22;2869;50.432;8.680;2022-10-15T16:17:07;16.60;99.90
5689;DHT22;2869;50.432;8.680;2022-10-15T16:19:34;16.50;99.90
5689;DHT22;2869;50.432;8.680;2022-10-15T16:22:00;16.50;99.90
5689;DHT22;2869;50.432;8.680;2022-10-15T16:24:27;16.40;99.90